Parker, Idaho
Current Conditions -  °F | °C
As of 6:53 PM on Wednesday 22 Oct 2014 (Local Time) from KRXE Reporting Station
Clear Clear  
Wind Chill:   Ceiling: Unl
Heat Index:   Visibility: 10mi
Dew Point: -3°   Wind: 0mph
Humidity: 44%   Direction: NA
Pressure: 30.16"   Gusts: NA
Location:  43.96°N, 111.76°W
Report Text: KRXE 230053Z AUTO 00000KT 10SM CLR 08/M03 A3016 RMK AO2 SLP221 T00831033
Loading
Personal Weather Stations






























Interactive Weather Map
Tropical Storm Tracking
New forecast layout! Learn more

10-Day Weather Forecast

Advertisements
Track Severe Weather on mobile